createdAt,value
2022-08-26T00:00:24.365Z,68.05
2022-08-26T00:02:50.756Z,68.13
2022-08-26T00:05:17.112Z,67.98
2022-08-26T00:07:43.537Z,67.63
2022-08-26T00:10:09.915Z,68.09
2022-08-26T00:12:37.682Z,67.91
2022-08-26T00:15:02.722Z,68.05
2022-08-26T00:17:29.105Z,67.66
2022-08-26T00:19:55.469Z,67.65
2022-08-26T00:22:21.841Z,67.75
2022-08-26T00:24:48.225Z,67.69
2022-08-26T00:27:14.592Z,67.54
2022-08-26T00:29:40.947Z,67.41
2022-08-26T00:32:07.462Z,67.44
2022-08-26T00:34:33.835Z,67.14
2022-08-26T00:37:00.223Z,67.68
2022-08-26T00:39:26.608Z,68.34
2022-08-26T00:41:52.971Z,68.24
2022-08-26T00:44:19.371Z,68.68
2022-08-26T00:46:46.753Z,69.12
2022-08-26T00:49:12.511Z,69.28
2022-08-26T00:51:38.564Z,69.72
2022-08-26T00:54:05.363Z,70.22
2022-08-26T00:56:31.337Z,70.53
2022-08-26T00:58:57.766Z,70.82
2022-08-26T01:01:24.196Z,70.67
2022-08-26T01:03:50.542Z,70.57
2022-08-26T01:06:16.987Z,70.84
2022-08-26T01:08:43.363Z,71.20
2022-08-26T01:11:09.728Z,71.04
2022-08-26T01:13:36.158Z,70.80
2022-08-26T01:16:02.647Z,70.72
2022-08-26T01:18:28.966Z,70.82
2022-08-26T01:20:57.691Z,70.16
2022-08-26T01:23:21.763Z,69.65
2022-08-26T01:25:48.118Z,68.94
2022-08-26T01:28:14.482Z,69.39
2022-08-26T01:30:40.851Z,69.70
2022-08-26T01:33:07.339Z,70.09
2022-08-26T01:35:33.598Z,69.48
2022-08-26T01:38:00.084Z,69.29
2022-08-26T01:40:26.548Z,68.92
2022-08-26T01:42:52.824Z,68.92
2022-08-26T01:45:19.212Z,68.96
2022-08-26T01:47:45.571Z,68.34
2022-08-26T01:50:11.937Z,67.78
2022-08-26T01:52:38.346Z,66.47
2022-08-26T01:55:04.798Z,66.45
2022-08-26T01:57:31.241Z,67.00
2022-08-26T01:59:57.672Z,66.36
2022-08-26T02:02:24.570Z,66.22
2022-08-26T02:04:50.453Z,65.41
2022-08-26T02:07:16.767Z,66.00
2022-08-26T02:09:43.155Z,66.48
2022-08-26T02:12:09.543Z,66.47
2022-08-26T02:14:35.914Z,65.95
2022-08-26T02:17:02.394Z,66.09
2022-08-26T02:19:28.824Z,65.84
2022-08-26T02:21:55.179Z,66.22
2022-08-26T02:24:21.588Z,66.62
2022-08-26T02:26:47.952Z,66.87
2022-08-26T02:29:14.340Z,67.13
2022-08-26T02:31:40.812Z,67.13
2022-08-26T02:34:07.175Z,66.17
2022-08-26T02:36:33.559Z,66.75
2022-08-26T02:38:59.983Z,67.34
2022-08-26T02:41:26.347Z,67.54
2022-08-26T02:43:52.748Z,67.22
2022-08-26T02:46:27.641Z,66.12
2022-08-26T02:48:45.485Z,66.34
2022-08-26T02:51:11.938Z,66.44
2022-08-26T02:53:38.303Z,65.83
2022-08-26T02:56:04.685Z,65.58
2022-08-26T02:58:31.070Z,66.57
2022-08-26T03:00:57.489Z,66.76
2022-08-26T03:03:23.886Z,66.12
2022-08-26T03:05:50.185Z,65.75
2022-08-26T03:08:16.553Z,65.17
2022-08-26T03:10:42.940Z,65.29
2022-08-26T03:13:09.444Z,65.69
2022-08-26T03:15:35.760Z,65.36
2022-08-26T03:18:02.145Z,65.22
2022-08-26T03:20:28.502Z,65.00
2022-08-26T03:23:06.821Z,65.50
2022-08-26T03:25:21.290Z,65.40
2022-08-26T03:27:47.666Z,64.92
2022-08-26T03:30:14.023Z,64.48
2022-08-26T03:32:41.543Z,63.78
2022-08-26T03:35:06.772Z,64.11
2022-08-26T03:37:33.164Z,63.60
2022-08-26T03:39:59.586Z,63.72
2022-08-26T03:42:25.903Z,63.63
2022-08-26T03:44:52.345Z,62.97
2022-08-26T03:47:18.707Z,62.78
2022-08-26T03:49:45.067Z,62.17
2022-08-26T03:52:11.441Z,62.29
2022-08-26T03:54:37.873Z,61.49
2022-08-26T03:57:04.349Z,61.95
2022-08-26T03:59:30.703Z,61.36
2022-08-26T04:01:57.114Z,61.75
2022-08-26T04:04:24.457Z,61.58
2022-08-26T04:06:49.844Z,60.76
2022-08-26T04:09:16.266Z,60.79
2022-08-26T04:11:42.667Z,61.32
2022-08-26T04:14:09.032Z,61.28
2022-08-26T04:16:35.514Z,60.93
2022-08-26T04:19:01.823Z,61.12
2022-08-26T04:21:28.336Z,60.82
2022-08-26T04:23:54.693Z,60.58
2022-08-26T04:26:21.200Z,61.19
2022-08-26T04:28:47.623Z,61.36
2022-08-26T04:31:14.018Z,61.13
2022-08-26T04:33:41.773Z,61.21
2022-08-26T04:36:06.793Z,61.00
2022-08-26T04:38:33.278Z,61.12
2022-08-26T04:40:59.697Z,61.13
2022-08-26T04:43:26.126Z,61.19
2022-08-26T04:45:52.481Z,61.11
2022-08-26T04:48:18.875Z,61.16
2022-08-26T04:50:45.319Z,61.06
2022-08-26T04:53:11.753Z,60.85
2022-08-26T04:55:42.717Z,60.30
2022-08-26T04:58:04.619Z,59.58
2022-08-26T05:00:30.975Z,59.05
2022-08-26T05:02:57.377Z,59.05
2022-08-26T05:05:23.766Z,59.52
2022-08-26T05:07:50.133Z,59.29
2022-08-26T05:10:16.581Z,59.84
2022-08-26T05:12:42.975Z,59.68
2022-08-26T05:15:09.350Z,59.88
2022-08-26T05:17:35.724Z,60.38
2022-08-26T05:20:02.111Z,60.47
2022-08-26T05:22:28.540Z,60.11
2022-08-26T05:24:54.903Z,59.81
2022-08-26T05:27:21.303Z,59.12
2022-08-26T05:29:47.659Z,58.21
2022-08-26T05:32:14.068Z,58.07
2022-08-26T05:34:40.431Z,58.18
2022-08-26T05:37:06.793Z,58.53
2022-08-26T05:39:33.185Z,58.46
2022-08-26T05:41:59.551Z,58.97
2022-08-26T05:44:25.935Z,58.74
2022-08-26T05:46:52.429Z,58.34
2022-08-26T05:49:18.679Z,58.22
2022-08-26T05:51:45.127Z,58.72
2022-08-26T05:54:11.506Z,58.50
2022-08-26T05:56:37.874Z,57.90
2022-08-26T05:59:04.529Z,57.95
2022-08-26T06:01:30.731Z,58.66
2022-08-26T06:03:57.043Z,58.04
2022-08-26T06:06:27.355Z,58.19
2022-08-26T06:08:49.874Z,58.53
2022-08-26T06:11:18.370Z,58.64
2022-08-26T06:13:42.672Z,57.86
2022-08-26T06:16:09.187Z,57.74
2022-08-26T06:18:35.561Z,57.39
2022-08-26T06:21:01.955Z,57.69
2022-08-26T06:23:28.319Z,58.06
2022-08-26T06:25:54.697Z,57.71
2022-08-26T06:28:21.105Z,56.79
2022-08-26T06:30:47.585Z,56.43
2022-08-26T06:33:13.899Z,56.81
2022-08-26T06:35:40.296Z,57.48
2022-08-26T06:38:06.682Z,57.07
2022-08-26T06:40:33.091Z,56.87
2022-08-26T06:42:59.474Z,57.01
2022-08-26T06:45:25.857Z,56.33
2022-08-26T06:47:52.214Z,56.91
2022-08-26T06:50:18.634Z,56.28
2022-08-26T06:52:45.028Z,56.09
2022-08-26T06:55:11.432Z,55.48
2022-08-26T06:57:41.071Z,54.55
2022-08-26T07:00:04.267Z,54.91
2022-08-26T07:02:30.686Z,54.80
2022-08-26T07:04:57.037Z,54.56
2022-08-26T07:07:23.401Z,54.68
2022-08-26T07:09:52.450Z,55.38
2022-08-26T07:12:16.162Z,55.19
2022-08-26T07:14:47.298Z,54.92
2022-08-26T07:17:13.722Z,55.31
2022-08-26T07:19:35.285Z,54.79
2022-08-26T07:22:01.745Z,54.38
2022-08-26T07:24:28.516Z,54.15
2022-08-26T07:26:54.520Z,54.23
2022-08-26T07:29:20.885Z,53.65
2022-08-26T07:31:47.344Z,53.17
2022-08-26T07:34:13.761Z,54.32
2022-08-26T07:36:40.120Z,52.93
2022-08-26T07:39:06.534Z,52.37
2022-08-26T07:41:32.877Z,52.35
2022-08-26T07:43:59.267Z,52.55
2022-08-26T07:46:29.922Z,52.47
2022-08-26T07:48:52.018Z,52.00
2022-08-26T07:51:18.491Z,51.71
2022-08-26T07:53:44.853Z,52.22
2022-08-26T07:56:11.239Z,52.04
2022-08-26T07:58:37.610Z,52.06
2022-08-26T08:01:04.054Z,51.11
2022-08-26T08:03:30.465Z,50.84
2022-08-26T08:05:56.833Z,49.83
2022-08-26T08:08:26.838Z,49.75
2022-08-26T08:10:49.577Z,48.48
2022-08-26T08:13:15.946Z,46.94
2022-08-26T08:15:42.363Z,47.04
2022-08-26T08:18:15.631Z,47.27
2022-08-26T08:20:35.142Z,46.24
2022-08-26T08:23:01.528Z,46.25
2022-08-26T08:25:27.895Z,45.87
2022-08-26T08:27:54.307Z,45.43
2022-08-26T08:30:22.803Z,44.36
2022-08-26T08:32:47.178Z,44.93
2022-08-26T08:35:13.566Z,44.87
2022-08-26T08:37:39.955Z,44.58
2022-08-26T08:40:06.336Z,44.88
2022-08-26T08:42:32.713Z,45.11
2022-08-26T08:44:59.090Z,44.88
2022-08-26T08:47:25.560Z,43.94
2022-08-26T08:49:51.935Z,41.71
2022-08-26T08:52:18.343Z,39.82
2022-08-26T08:54:44.722Z,38.44
2022-08-26T08:57:11.117Z,38.42
2022-08-26T08:59:38.229Z,38.79
2022-08-26T09:02:03.879Z,40.08
2022-08-26T09:04:30.235Z,40.52
2022-08-26T09:09:23.079Z,36.09
2022-08-26T09:11:49.563Z,34.51
2022-08-26T09:14:15.935Z,32.88
2022-08-26T09:16:42.346Z,33.50
2022-08-26T09:19:08.675Z,32.28
2022-08-26T09:21:35.196Z,31.75
2022-08-26T09:24:01.588Z,31.10
2022-08-26T09:26:29.665Z,30.12
2022-08-26T09:28:54.350Z,29.56
2022-08-26T09:31:20.790Z,29.44
2022-08-26T09:33:47.156Z,30.30
2022-08-26T09:36:13.536Z,31.59
2022-08-26T09:38:39.924Z,31.86
2022-08-26T09:41:06.349Z,32.48
2022-08-26T09:43:32.742Z,32.40
2022-08-26T09:45:59.859Z,30.89
2022-08-26T09:48:25.595Z,31.04
2022-08-26T09:50:51.987Z,29.23
2022-08-26T09:53:20.989Z,29.16
2022-08-26T09:55:44.844Z,27.68
2022-08-26T09:58:11.345Z,28.23
2022-08-26T10:00:38.395Z,28.57
2022-08-26T10:03:04.066Z,28.41
2022-08-26T10:05:30.391Z,29.63
2022-08-26T10:07:56.779Z,29.79
2022-08-26T10:10:23.148Z,29.14
2022-08-26T10:12:49.511Z,28.29
2022-08-26T10:15:15.925Z,27.26
2022-08-26T10:17:42.331Z,26.64
2022-08-26T10:20:13.639Z,27.11
2022-08-26T10:22:35.174Z,26.75
2022-08-26T10:25:02.715Z,26.18
2022-08-26T10:27:27.937Z,25.38
2022-08-26T10:29:54.395Z,24.76
2022-08-26T10:32:20.852Z,25.26
2022-08-26T10:34:47.160Z,24.89
2022-08-26T10:37:16.197Z,25.17
2022-08-26T10:39:39.916Z,26.03
2022-08-26T10:42:06.326Z,25.09
2022-08-26T10:44:32.693Z,24.36
2022-08-26T10:46:59.054Z,25.28
2022-08-26T10:49:25.476Z,24.14
2022-08-26T10:51:51.919Z,24.65
2022-08-26T10:54:18.267Z,24.67
2022-08-26T10:56:44.676Z,26.10
2022-08-26T10:59:12.465Z,26.13
2022-08-26T11:01:40.669Z,23.75
2022-08-26T11:04:03.814Z,24.30
2022-08-26T11:06:30.290Z,23.29
2022-08-26T11:08:56.716Z,24.24
2022-08-26T11:11:23.073Z,25.74
2022-08-26T11:13:49.463Z,27.53
2022-08-26T11:16:15.880Z,26.74
2022-08-26T11:18:42.208Z,26.32
2022-08-26T11:21:10.158Z,25.05
2022-08-26T11:23:35.097Z,24.53
2022-08-26T11:26:01.457Z,24.64
2022-08-26T11:28:27.832Z,24.39
2022-08-26T11:30:58.109Z,23.71
2022-08-26T11:33:20.628Z,23.61
2022-08-26T11:35:47.064Z,22.71
2022-08-26T11:38:13.466Z,23.53
2022-08-26T11:40:39.896Z,24.00
2022-08-26T11:43:06.234Z,23.61
2022-08-26T11:45:32.666Z,23.95
2022-08-26T11:47:58.996Z,23.70
2022-08-26T11:50:25.379Z,23.73
2022-08-26T11:52:51.813Z,22.82
2022-08-26T11:55:18.189Z,22.51
2022-08-26T11:57:44.558Z,22.60
2022-08-26T12:00:13.607Z,22.60
2022-08-26T12:02:37.318Z,22.89
2022-08-26T12:05:03.694Z,22.71
2022-08-26T12:07:30.064Z,23.37
2022-08-26T12:09:56.550Z,24.29
2022-08-26T12:12:22.829Z,23.82
2022-08-26T12:14:49.207Z,23.56
2022-08-26T12:17:15.578Z,24.08
2022-08-26T12:19:41.971Z,23.15
2022-08-26T12:22:08.353Z,23.71
2022-08-26T12:24:34.734Z,23.25
2022-08-26T12:27:01.128Z,22.88
2022-08-26T12:29:27.564Z,22.62
2022-08-26T12:31:53.938Z,22.44
2022-08-26T12:34:20.330Z,22.71
2022-08-26T12:36:46.789Z,23.17
2022-08-26T12:39:13.144Z,23.74
2022-08-26T12:41:39.529Z,22.99
2022-08-26T12:44:05.891Z,23.60
2022-08-26T12:46:32.290Z,24.09
2022-08-26T12:48:58.655Z,24.57
2022-08-26T12:51:25.042Z,24.75
2022-08-26T12:53:51.485Z,24.34
2022-08-26T12:56:17.868Z,24.55
2022-08-26T12:58:44.330Z,25.11
2022-08-26T13:01:10.720Z,25.46
2022-08-26T13:03:37.092Z,25.63
2022-08-26T13:06:03.666Z,25.74
2022-08-26T13:08:31.659Z,25.81
2022-08-26T13:10:58.403Z,26.08
2022-08-26T13:13:24.763Z,26.33
2022-08-26T13:15:51.191Z,26.76
2022-08-26T13:18:17.538Z,26.69
2022-08-26T13:20:43.906Z,26.91
2022-08-26T13:23:10.440Z,26.53
2022-08-26T13:25:36.761Z,26.39
2022-08-26T13:28:03.151Z,26.30
2022-08-26T13:30:29.518Z,26.47
2022-08-26T13:32:55.886Z,27.20
2022-08-26T13:35:22.386Z,27.01
2022-08-26T13:37:48.752Z,26.99
2022-08-26T13:40:15.181Z,26.89
2022-08-26T13:42:49.486Z,27.32
2022-08-26T13:45:07.934Z,27.68
2022-08-26T13:47:34.301Z,27.57
2022-08-26T13:50:00.729Z,27.85
2022-08-26T13:52:31.056Z,27.96
2022-08-26T13:54:53.469Z,27.20
2022-08-26T13:57:19.836Z,27.55
2022-08-26T13:59:46.225Z,27.82
2022-08-26T14:02:12.628Z,28.02
2022-08-26T14:04:38.994Z,28.04
2022-08-26T14:07:05.367Z,28.04
2022-08-26T14:09:34.399Z,28.09
2022-08-26T14:11:59.950Z,28.17
2022-08-26T14:14:24.609Z,28.45
2022-08-26T14:16:59.681Z,28.79
2022-08-26T14:19:17.364Z,28.61
2022-08-26T14:21:43.788Z,28.77
2022-08-26T14:24:10.180Z,29.00
2022-08-26T14:26:36.591Z,29.29
2022-08-26T14:29:02.999Z,29.33
2022-08-26T14:31:29.686Z,29.40
2022-08-26T14:33:55.749Z,29.19
2022-08-26T14:36:22.134Z,29.43
2022-08-26T14:38:48.525Z,29.48
2022-08-26T14:41:14.897Z,29.30
2022-08-26T14:43:41.306Z,29.60
2022-08-26T14:46:07.750Z,29.86
2022-08-26T14:48:34.076Z,30.05
2022-08-26T14:51:00.464Z,30.55
2022-08-26T14:53:26.906Z,30.23
2022-08-26T14:55:53.358Z,29.92
2022-08-26T14:58:19.731Z,30.17
2022-08-26T15:00:46.104Z,29.99
2022-08-26T15:03:12.684Z,29.44
2022-08-26T15:05:38.976Z,29.53
2022-08-26T15:08:05.411Z,29.60
2022-08-26T15:10:31.774Z,29.87
2022-08-26T15:12:58.171Z,29.96
2022-08-26T15:15:24.553Z,29.98
2022-08-26T15:17:50.906Z,30.11
2022-08-26T15:20:17.375Z,30.02
2022-08-26T15:22:43.726Z,29.77
2022-08-26T15:25:10.103Z,29.57
2022-08-26T15:27:36.640Z,29.17
2022-08-26T15:30:03.008Z,29.67
2022-08-26T15:32:29.390Z,29.85
2022-08-26T15:34:55.865Z,30.17
2022-08-26T15:37:22.301Z,29.82
2022-08-26T15:39:48.742Z,30.00
2022-08-26T15:42:15.093Z,30.14
2022-08-26T15:44:41.476Z,30.27
2022-08-26T15:47:07.914Z,30.31
2022-08-26T15:49:34.322Z,30.49
2022-08-26T15:52:00.686Z,30.69
2022-08-26T15:54:27.089Z,30.60
2022-08-26T15:56:53.555Z,30.46
2022-08-26T15:59:19.922Z,30.41
2022-08-26T16:01:46.409Z,30.66
2022-08-26T16:04:12.743Z,30.74
2022-08-26T16:06:39.129Z,30.86
2022-08-26T16:09:05.527Z,31.15
2022-08-26T16:11:31.925Z,31.27
2022-08-26T16:13:58.324Z,31.30
2022-08-26T16:16:24.799Z,31.40
2022-08-26T16:18:51.139Z,31.67
2022-08-26T16:21:17.493Z,31.73
2022-08-26T16:23:45.299Z,31.63
2022-08-26T16:26:10.471Z,31.78
2022-08-26T16:28:36.633Z,31.78
2022-08-26T16:31:03.033Z,32.04
2022-08-26T16:33:29.811Z,32.11
2022-08-26T16:35:55.736Z,32.31
2022-08-26T16:38:22.111Z,32.23
2022-08-26T16:40:48.492Z,32.33
2022-08-26T16:43:15.214Z,32.43
2022-08-26T16:45:41.297Z,32.75
2022-08-26T16:48:07.753Z,32.70
2022-08-26T16:50:34.063Z,32.73
2022-08-26T16:53:00.675Z,33.01
2022-08-26T16:55:26.912Z,32.83
2022-08-26T16:57:53.304Z,33.52
2022-08-26T17:00:19.713Z,34.68
2022-08-26T17:02:46.156Z,35.05
2022-08-26T17:05:12.477Z,35.56
2022-08-26T17:07:38.906Z,34.80
2022-08-26T17:10:05.319Z,35.35
2022-08-26T17:12:31.690Z,35.99
2022-08-26T17:14:58.056Z,36.20
2022-08-26T17:17:24.434Z,35.81
2022-08-26T17:19:50.804Z,36.06
2022-08-26T17:22:17.201Z,36.37
2022-08-26T17:24:43.559Z,36.40
2022-08-26T17:27:09.930Z,36.73
2022-08-26T17:29:36.354Z,36.91
2022-08-26T17:32:02.736Z,36.34
2022-08-26T17:34:29.098Z,36.72
2022-08-26T17:36:55.504Z,37.10
2022-08-26T17:39:21.891Z,37.03
2022-08-26T17:41:48.275Z,37.69
2022-08-26T17:44:14.644Z,38.07
2022-08-26T17:46:41.078Z,38.22
2022-08-26T17:49:07.430Z,38.49
2022-08-26T17:51:33.865Z,37.72
2022-08-26T17:54:00.230Z,38.40
2022-08-26T17:56:26.603Z,38.01
2022-08-26T17:58:52.988Z,38.23
2022-08-26T18:01:19.449Z,38.94
2022-08-26T18:03:45.798Z,38.80
2022-08-26T18:06:12.160Z,38.91
2022-08-26T18:08:38.546Z,39.07
2022-08-26T18:11:04.953Z,38.27
2022-08-26T18:13:31.353Z,37.77
2022-08-26T18:15:57.808Z,37.82
2022-08-26T18:18:24.181Z,38.38
2022-08-26T18:20:54.095Z,38.63
2022-08-26T18:23:16.932Z,39.48
2022-08-26T18:25:43.365Z,39.44
2022-08-26T18:28:09.715Z,39.78
2022-08-26T18:30:36.173Z,40.00
2022-08-26T18:33:02.568Z,40.49
2022-08-26T18:35:29.008Z,41.10
2022-08-26T18:37:55.367Z,41.06
2022-08-26T18:40:21.843Z,40.78
2022-08-26T18:42:49.354Z,41.51
2022-08-26T18:45:18.132Z,42.67
2022-08-26T18:47:44.521Z,42.55
2022-08-26T18:50:10.922Z,43.22
2022-08-26T18:52:37.284Z,43.71
2022-08-26T18:55:03.673Z,43.74
2022-08-26T18:57:30.058Z,43.43
2022-08-26T18:59:56.436Z,43.26
2022-08-26T19:02:22.919Z,43.21
2022-08-26T19:04:49.233Z,44.03
2022-08-26T19:07:15.807Z,44.76
2022-08-26T19:09:42.173Z,45.54
2022-08-26T19:12:08.538Z,45.81
2022-08-26T19:14:34.928Z,46.74
2022-08-26T19:17:01.405Z,47.31
2022-08-26T19:19:27.694Z,47.89
2022-08-26T19:21:54.061Z,47.83
2022-08-26T19:24:20.573Z,47.56
2022-08-26T19:26:46.962Z,48.21
2022-08-26T19:29:13.401Z,48.27
2022-08-26T19:31:39.729Z,47.88
2022-08-26T19:34:06.107Z,47.19
2022-08-26T19:36:32.703Z,47.67
2022-08-26T19:38:59.067Z,46.64
2022-08-26T19:41:37.128Z,46.80
2022-08-26T19:43:51.845Z,47.06
2022-08-26T19:46:18.288Z,47.81
2022-08-26T19:48:44.578Z,48.60
2022-08-26T19:51:11.028Z,49.17
2022-08-26T19:53:37.417Z,48.84
2022-08-26T19:56:03.813Z,48.83
2022-08-26T19:58:30.224Z,49.07
2022-08-26T20:00:56.647Z,49.61
2022-08-26T20:03:23.201Z,49.69
2022-08-26T20:05:49.613Z,50.11
2022-08-26T20:08:22.215Z,50.17
2022-08-26T20:10:42.374Z,50.23
2022-08-26T20:13:08.817Z,50.65
2022-08-26T20:15:35.149Z,51.20
2022-08-26T20:18:01.521Z,50.88
2022-08-26T20:20:33.401Z,51.23
2022-08-26T20:22:54.332Z,51.10
2022-08-26T20:25:20.718Z,50.66
2022-08-26T20:27:47.072Z,51.04
2022-08-26T20:30:13.444Z,50.93
2022-08-26T20:32:39.875Z,51.27
2022-08-26T20:35:06.272Z,51.59
2022-08-26T20:37:32.823Z,52.25
2022-08-26T20:39:59.226Z,52.95
2022-08-26T20:42:25.577Z,53.27
2022-08-26T20:44:55.042Z,53.47
2022-08-26T20:47:18.378Z,53.68
2022-08-26T20:49:44.808Z,53.73
2022-08-26T20:52:11.169Z,53.76
2022-08-26T20:54:37.562Z,54.42
2022-08-26T20:57:03.950Z,54.69
2022-08-26T20:59:30.325Z,54.70
2022-08-26T21:01:56.711Z,54.95
2022-08-26T21:04:23.198Z,55.08
2022-08-26T21:06:52.881Z,54.53
2022-08-26T21:09:15.999Z,54.74
2022-08-26T21:11:42.399Z,55.00
2022-08-26T21:14:16.157Z,55.98
2022-08-26T21:16:35.236Z,55.59
2022-08-26T21:19:01.595Z,55.81
2022-08-26T21:21:28.022Z,56.48
2022-08-26T21:23:54.459Z,56.68
2022-08-26T21:26:20.840Z,57.21
2022-08-26T21:28:47.206Z,57.16
2022-08-26T21:31:13.784Z,57.03
2022-08-26T21:33:39.963Z,56.57
2022-08-26T21:36:06.422Z,56.96
2022-08-26T21:38:32.789Z,57.04
2022-08-26T21:40:59.179Z,57.77
2022-08-26T21:43:34.980Z,58.49
2022-08-26T21:45:51.978Z,58.08
2022-08-26T21:48:18.300Z,58.02
2022-08-26T21:50:44.664Z,57.97
2022-08-26T21:53:11.049Z,58.41
2022-08-26T21:55:37.415Z,58.49
2022-08-26T21:58:03.817Z,58.70
2022-08-26T22:00:30.240Z,58.68
2022-08-26T22:02:56.615Z,58.77
2022-08-26T22:05:22.982Z,58.93
2022-08-26T22:07:49.436Z,58.78
2022-08-26T22:10:15.802Z,58.66
2022-08-26T22:12:42.198Z,58.30
2022-08-26T22:15:08.633Z,58.43
2022-08-26T22:17:34.996Z,58.80
2022-08-26T22:20:01.386Z,58.68
2022-08-26T22:22:27.830Z,58.68
2022-08-26T22:24:54.262Z,59.17
2022-08-26T22:27:20.623Z,59.68
